To NAV CANADA Home Page Login to a new session Search on AWWS site Disclaimer Vers la page française équivalente Tips FAQ What's new on the site To the Forecasts and Observations / NOTAM section To "File a Flight Plan" website Publications and other links Update of the User's profile FIC Telephone Numbers My Weather Data Folder Route Weather Data Regional Weather Data Local Weather Data To the Forecasts and Observations / NOTAM section
Request Generated 04/24/2019 at 16:31:41 UTC . Weather information available at that time is displayed.

METAR/TAF

GRANDE PRAIRIE/AB    

METAR CYQU 241600Z CCA 26023G31KT 25SM VCSH FEW045 SCT150 SCT240 04/M09 A3000 RMK CU2AC1CI1 SLP187=
METAR CYQU 241600Z 26023G31KT 2SM VCSH FEW045 SCT150 SCT240 04/M09 A3000 RMK CU2AC1CI1 SLP187=
SPECI CYQU 241555Z 25024G31KT 25SM SCT045 SCT150 BKN240 04/M09 A3000 RMK CU3AC1CI1 SLP184=
SPECI CYQU 241539Z 25028G35KT 25SM -SHSN FEW045 SCT150 SCT240 04/M09 A3000 RMK CU2AC1CI1 SLP184=
METAR CYQU 241500Z 25021G27KT 25SM FEW040 FEW150 SCT240 04/M06 A2999 RMK CU1AC1CI1 SLP181=
METAR CYQU 241400Z 25015KT 25SM BKN130 02/M06 A2998 RMK AC5 SLP178=

TAF AMD CYQU 241602Z 2416/2501 26022G32KT P6SM FEW050 SCT150
FM242100 27025G35KT P6SM BKN080
RMK NXT FCST BY 241900Z=
Your time UTC time
Weather data provided by Environment Canada and NAV CANADA